sensor_id;sensor_type;location;lat;lon;timestamp;pressure;altitude;pressure_sealevel;temperature;humidity
19108;BME280;9686;48.832;9.126;2022-11-21T00:00:17;97379.50;;;8.92;100.00
19108;BME280;9686;48.832;9.126;2022-11-21T00:02:42;97368.78;;;9.15;100.00
19108;BME280;9686;48.832;9.126;2022-11-21T00:05:08;97369.28;;;9.40;100.00
19108;BME280;9686;48.832;9.126;2022-11-21T00:07:33;97361.78;;;9.20;100.00
19108;BME280;9686;48.832;9.126;2022-11-21T00:09:59;97368.97;;;9.02;100.00
19108;BME280;9686;48.832;9.126;2022-11-21T00:12:24;97372.19;;;9.20;100.00
19108;BME280;9686;48.832;9.126;2022-11-21T00:14:49;97358.53;;;9.05;100.00
19108;BME280;9686;48.832;9.126;2022-11-21T00:17:15;97353.34;;;9.03;100.00
19108;BME280;9686;48.832;9.126;2022-11-21T00:19:40;97348.94;;;9.07;100.00
19108;BME280;9686;48.832;9.126;2022-11-21T00:22:06;97353.28;;;9.06;100.00
19108;BME280;9686;48.832;9.126;2022-11-21T00:24:31;97336.53;;;9.27;100.00
19108;BME280;9686;48.832;9.126;2022-11-21T00:26:56;97346.03;;;9.30;100.00
19108;BME280;9686;48.832;9.126;2022-11-21T00:29:22;97349.41;;;9.38;100.00
19108;BME280;9686;48.832;9.126;2022-11-21T00:31:47;97345.84;;;9.43;100.00
19108;BME280;9686;48.832;9.126;2022-11-21T00:34:12;97344.16;;;9.41;100.00
19108;BME280;9686;48.832;9.126;2022-11-21T00:36:40;97338.84;;;9.47;100.00
19108;BME280;9686;48.832;9.126;2022-11-21T00:39:05;97329.41;;;9.40;100.00
19108;BME280;9686;48.832;9.126;2022-11-21T00:41:30;97330.28;;;9.40;100.00
19108;BME280;9686;48.832;9.126;2022-11-21T00:43:56;97328.56;;;9.39;100.00
19108;BME280;9686;48.832;9.126;2022-11-21T00:46:21;97321.56;;;9.43;100.00
19108;BME280;9686;48.832;9.126;2022-11-21T00:48:46;97320.63;;;9.47;100.00
19108;BME280;9686;48.832;9.126;2022-11-21T00:51:11;97319.13;;;9.31;100.00
19108;BME280;9686;48.832;9.126;2022-11-21T00:53:37;97311.28;;;9.34;100.00
19108;BME280;9686;48.832;9.126;2022-11-21T00:56:02;97309.81;;;9.17;100.00
19108;BME280;9686;48.832;9.126;2022-11-21T00:58:28;97304.47;;;9.26;100.00
19108;BME280;9686;48.832;9.126;2022-11-21T01:01:05;97304.31;;;9.36;100.00
19108;BME280;9686;48.832;9.126;2022-11-21T01:03:32;97315.09;;;9.13;100.00
19108;BME280;9686;48.832;9.126;2022-11-21T01:06:16;97309.88;;;9.14;100.00
19108;BME280;9686;48.832;9.126;2022-11-21T01:08:42;97313.19;;;9.24;100.00
19108;BME280;9686;48.832;9.126;2022-11-21T01:11:11;97315.84;;;9.19;100.00
19108;BME280;9686;48.832;9.126;2022-11-21T01:13:38;97316.75;;;9.18;100.00
19108;BME280;9686;48.832;9.126;2022-11-21T01:16:05;97319.47;;;9.08;100.00
19108;BME280;9686;48.832;9.126;2022-11-21T01:18:31;97312.59;;;9.05;100.00
19108;BME280;9686;48.832;9.126;2022-11-21T01:21:04;97300.34;;;9.13;100.00
19108;BME280;9686;48.832;9.126;2022-11-21T01:23:30;97309.78;;;9.20;100.00
19108;BME280;9686;48.832;9.126;2022-11-21T01:26:10;97303.84;;;9.12;100.00
19108;BME280;9686;48.832;9.126;2022-11-21T01:28:35;97303.09;;;9.03;100.00
19108;BME280;9686;48.832;9.126;2022-11-21T01:31:09;97309.47;;;8.80;100.00
19108;BME280;9686;48.832;9.126;2022-11-21T01:33:35;97312.94;;;8.81;100.00
19108;BME280;9686;48.832;9.126;2022-11-21T01:36:08;97311.63;;;8.49;100.00
19108;BME280;9686;48.832;9.126;2022-11-21T01:38:34;97318.66;;;8.40;100.00
19108;BME280;9686;48.832;9.126;2022-11-21T01:40:59;97317.66;;;8.51;100.00
19108;BME280;9686;48.832;9.126;2022-11-21T01:43:24;97308.34;;;8.29;100.00
19108;BME280;9686;48.832;9.126;2022-11-21T01:48:26;97296.81;;;9.71;100.00
19108;BME280;9686;48.832;9.126;2022-11-21T01:50:53;97300.50;;;9.58;100.00
19108;BME280;9686;48.832;9.126;2022-11-21T01:53:20;97296.75;;;9.74;100.00
19108;BME280;9686;48.832;9.126;2022-11-21T01:55:47;97294.25;;;9.68;100.00
19108;BME280;9686;48.832;9.126;2022-11-21T01:58:13;97293.34;;;9.71;100.00
19108;BME280;9686;48.832;9.126;2022-11-21T02:00:39;97288.16;;;9.69;100.00
19108;BME280;9686;48.832;9.126;2022-11-21T02:03:09;97285.44;;;9.75;100.00
19108;BME280;9686;48.832;9.126;2022-11-21T02:05:36;97289.34;;;9.50;100.00
19108;BME280;9686;48.832;9.126;2022-11-21T02:08:18;97286.16;;;9.33;100.00
19108;BME280;9686;48.832;9.126;2022-11-21T02:10:55;97281.66;;;9.44;100.00
19108;BME280;9686;48.832;9.126;2022-11-21T02:13:22;97283.00;;;9.68;100.00
19108;BME280;9686;48.832;9.126;2022-11-21T02:15:47;97284.97;;;9.53;100.00
19108;BME280;9686;48.832;9.126;2022-11-21T02:18:13;97285.13;;;9.44;100.00
19108;BME280;9686;48.832;9.126;2022-11-21T02:20:41;97284.94;;;9.55;100.00
19108;BME280;9686;48.832;9.126;2022-11-21T02:25:40;97286.03;;;8.86;100.00
19108;BME280;9686;48.832;9.126;2022-11-21T02:28:10;97289.91;;;9.16;100.00
19108;BME280;9686;48.832;9.126;2022-11-21T02:30:38;97289.47;;;8.88;100.00
19108;BME280;9686;48.832;9.126;2022-11-21T02:33:04;97286.72;;;8.98;100.00
19108;BME280;9686;48.832;9.126;2022-11-21T02:35:30;97290.19;;;8.98;100.00
19108;BME280;9686;48.832;9.126;2022-11-21T02:37:58;97285.03;;;8.95;100.00
19108;BME280;9686;48.832;9.126;2022-11-21T02:40:35;97283.13;;;9.06;100.00
19108;BME280;9686;48.832;9.126;2022-11-21T02:43:15;97280.69;;;8.95;100.00
19108;BME280;9686;48.832;9.126;2022-11-21T02:45:43;97283.31;;;8.94;100.00
19108;BME280;9686;48.832;9.126;2022-11-21T02:48:09;97274.56;;;8.98;100.00
19108;BME280;9686;48.832;9.126;2022-11-21T02:50:40;97271.50;;;8.72;100.00
19108;BME280;9686;48.832;9.126;2022-11-21T02:53:07;97272.97;;;8.91;100.00
19108;BME280;9686;48.832;9.126;2022-11-21T02:55:33;97265.81;;;9.04;100.00
19108;BME280;9686;48.832;9.126;2022-11-21T02:57:58;97258.88;;;9.04;100.00
19108;BME280;9686;48.832;9.126;2022-11-21T03:00:24;97257.63;;;8.73;100.00
19108;BME280;9686;48.832;9.126;2022-11-21T03:02:50;97254.66;;;8.99;100.00
19108;BME280;9686;48.832;9.126;2022-11-21T03:05:18;97253.72;;;9.01;100.00
19108;BME280;9686;48.832;9.126;2022-11-21T03:07:45;97252.91;;;8.99;100.00
19108;BME280;9686;48.832;9.126;2022-11-21T03:10:11;97253.59;;;9.10;100.00
19108;BME280;9686;48.832;9.126;2022-11-21T03:12:37;97246.59;;;9.15;100.00
19108;BME280;9686;48.832;9.126;2022-11-21T03:15:04;97245.16;;;8.96;100.00
19108;BME280;9686;48.832;9.126;2022-11-21T03:17:30;97243.25;;;9.06;100.00
19108;BME280;9686;48.832;9.126;2022-11-21T03:19:55;97239.78;;;9.07;100.00
19108;BME280;9686;48.832;9.126;2022-11-21T03:22:21;97236.56;;;8.92;100.00
19108;BME280;9686;48.832;9.126;2022-11-21T03:24:46;97231.09;;;9.08;100.00
19108;BME280;9686;48.832;9.126;2022-11-21T03:27:11;97240.59;;;9.10;100.00
19108;BME280;9686;48.832;9.126;2022-11-21T03:29:37;97244.16;;;9.03;100.00
19108;BME280;9686;48.832;9.126;2022-11-21T03:32:02;97234.25;;;9.28;100.00
19108;BME280;9686;48.832;9.126;2022-11-21T03:34:28;97236.00;;;9.26;100.00
19108;BME280;9686;48.832;9.126;2022-11-21T03:36:53;97243.69;;;9.32;100.00
19108;BME280;9686;48.832;9.126;2022-11-21T03:39:18;97235.63;;;9.49;100.00
19108;BME280;9686;48.832;9.126;2022-11-21T03:41:44;97233.00;;;9.50;100.00
19108;BME280;9686;48.832;9.126;2022-11-21T03:44:11;97233.78;;;9.54;100.00
19108;BME280;9686;48.832;9.126;2022-11-21T03:46:41;97233.59;;;9.66;100.00
19108;BME280;9686;48.832;9.126;2022-11-21T03:49:07;97237.09;;;9.64;100.00
19108;BME280;9686;48.832;9.126;2022-11-21T03:51:34;97235.34;;;9.66;100.00
19108;BME280;9686;48.832;9.126;2022-11-21T03:54:00;97229.88;;;9.78;100.00
19108;BME280;9686;48.832;9.126;2022-11-21T03:56:25;97228.16;;;9.77;100.00
19108;BME280;9686;48.832;9.126;2022-11-21T03:58:51;97230.03;;;9.70;100.00
19108;BME280;9686;48.832;9.126;2022-11-21T04:01:17;97238.78;;;9.66;100.00
19108;BME280;9686;48.832;9.126;2022-11-21T04:03:43;97239.53;;;9.73;100.00
19108;BME280;9686;48.832;9.126;2022-11-21T04:06:10;97232.84;;;9.58;100.00
19108;BME280;9686;48.832;9.126;2022-11-21T04:08:35;97238.38;;;9.40;100.00
19108;BME280;9686;48.832;9.126;2022-11-21T04:11:01;97238.44;;;9.35;100.00
19108;BME280;9686;48.832;9.126;2022-11-21T04:13:26;97234.81;;;9.45;100.00
19108;BME280;9686;48.832;9.126;2022-11-21T04:15:51;97227.72;;;9.53;100.00
19108;BME280;9686;48.832;9.126;2022-11-21T04:18:17;97223.53;;;9.46;100.00
19108;BME280;9686;48.832;9.126;2022-11-21T04:20:42;97231.41;;;9.42;100.00
19108;BME280;9686;48.832;9.126;2022-11-21T04:23:08;97225.47;;;9.34;100.00
19108;BME280;9686;48.832;9.126;2022-11-21T04:25:33;97227.78;;;9.50;100.00
19108;BME280;9686;48.832;9.126;2022-11-21T04:28:00;97233.63;;;9.65;100.00
19108;BME280;9686;48.832;9.126;2022-11-21T04:30:26;97239.53;;;9.73;100.00
19108;BME280;9686;48.832;9.126;2022-11-21T04:32:52;97235.75;;;9.91;100.00
19108;BME280;9686;48.832;9.126;2022-11-21T04:35:18;97220.09;;;9.92;100.00
19108;BME280;9686;48.832;9.126;2022-11-21T04:37:44;97221.88;;;9.87;100.00
19108;BME280;9686;48.832;9.126;2022-11-21T04:40:10;97226.00;;;10.00;100.00
19108;BME280;9686;48.832;9.126;2022-11-21T04:42:36;97226.84;;;10.01;100.00
19108;BME280;9686;48.832;9.126;2022-11-21T04:45:01;97227.97;;;9.89;100.00
19108;BME280;9686;48.832;9.126;2022-11-21T04:47:26;97229.78;;;9.82;100.00
19108;BME280;9686;48.832;9.126;2022-11-21T04:49:52;97221.97;;;9.82;100.00
19108;BME280;9686;48.832;9.126;2022-11-21T04:52:17;97220.13;;;9.91;100.00
19108;BME280;9686;48.832;9.126;2022-11-21T04:54:43;97232.34;;;9.85;100.00
19108;BME280;9686;48.832;9.126;2022-11-21T04:57:08;97232.56;;;9.75;100.00
19108;BME280;9686;48.832;9.126;2022-11-21T04:59:34;97229.00;;;9.79;100.00
19108;BME280;9686;48.832;9.126;2022-11-21T05:02:01;97232.31;;;9.87;100.00
19108;BME280;9686;48.832;9.126;2022-11-21T05:04:26;97227.06;;;9.88;100.00
19108;BME280;9686;48.832;9.126;2022-11-21T05:06:52;97224.53;;;9.85;100.00
19108;BME280;9686;48.832;9.126;2022-11-21T05:09:17;97234.97;;;9.84;100.00
19108;BME280;9686;48.832;9.126;2022-11-21T05:11:42;97234.19;;;9.79;100.00
19108;BME280;9686;48.832;9.126;2022-11-21T05:14:26;97222.97;;;9.77;100.00
19108;BME280;9686;48.832;9.126;2022-11-21T05:16:52;97226.41;;;9.79;100.00
19108;BME280;9686;48.832;9.126;2022-11-21T05:19:17;97220.25;;;9.83;100.00
19108;BME280;9686;48.832;9.126;2022-11-21T05:21:43;97219.13;;;9.96;100.00
19108;BME280;9686;48.832;9.126;2022-11-21T05:24:08;97228.63;;;9.99;100.00
19108;BME280;9686;48.832;9.126;2022-11-21T05:26:34;97224.22;;;10.02;100.00
19108;BME280;9686;48.832;9.126;2022-11-21T05:28:59;97220.91;;;9.94;100.00
19108;BME280;9686;48.832;9.126;2022-11-21T05:31:24;97222.66;;;9.94;100.00
19108;BME280;9686;48.832;9.126;2022-11-21T05:33:50;97237.38;;;9.95;100.00
19108;BME280;9686;48.832;9.126;2022-11-21T05:36:15;97224.75;;;9.75;100.00
19108;BME280;9686;48.832;9.126;2022-11-21T05:38:40;97229.13;;;9.73;100.00
19108;BME280;9686;48.832;9.126;2022-11-21T05:41:06;97234.94;;;9.85;100.00
19108;BME280;9686;48.832;9.126;2022-11-21T05:43:32;97243.53;;;9.91;100.00
19108;BME280;9686;48.832;9.126;2022-11-21T05:46:18;97241.84;;;9.86;100.00
19108;BME280;9686;48.832;9.126;2022-11-21T05:48:45;97239.81;;;10.04;100.00
19108;BME280;9686;48.832;9.126;2022-11-21T05:51:11;97235.41;;;10.06;100.00
19108;BME280;9686;48.832;9.126;2022-11-21T05:53:36;97242.63;;;9.93;100.00
19108;BME280;9686;48.832;9.126;2022-11-21T05:56:07;97250.56;;;9.85;100.00
19108;BME280;9686;48.832;9.126;2022-11-21T05:58:33;97247.88;;;9.92;100.00
19108;BME280;9686;48.832;9.126;2022-11-21T06:00:59;97249.63;;;9.89;100.00
19108;BME280;9686;48.832;9.126;2022-11-21T06:03:25;97241.22;;;9.75;100.00
19108;BME280;9686;48.832;9.126;2022-11-21T06:06:05;97238.41;;;9.86;100.00
19108;BME280;9686;48.832;9.126;2022-11-21T06:08:34;97244.19;;;10.02;100.00
19108;BME280;9686;48.832;9.126;2022-11-21T06:11:01;97242.59;;;9.95;100.00
19108;BME280;9686;48.832;9.126;2022-11-21T06:13:27;97245.22;;;9.93;100.00
19108;BME280;9686;48.832;9.126;2022-11-21T06:18:24;97250.41;;;9.95;100.00
19108;BME280;9686;48.832;9.126;2022-11-21T06:20:50;97248.63;;;9.97;100.00
19108;BME280;9686;48.832;9.126;2022-11-21T06:23:15;97255.00;;;9.80;100.00
19108;BME280;9686;48.832;9.126;2022-11-21T06:25:41;97246.06;;;9.95;100.00
19108;BME280;9686;48.832;9.126;2022-11-21T06:28:07;97247.50;;;10.08;100.00
19108;BME280;9686;48.832;9.126;2022-11-21T06:30:33;97251.13;;;10.01;100.00
19108;BME280;9686;48.832;9.126;2022-11-21T06:32:58;97254.50;;;10.06;100.00
19108;BME280;9686;48.832;9.126;2022-11-21T06:35:23;97252.69;;;10.10;100.00
19108;BME280;9686;48.832;9.126;2022-11-21T06:37:49;97250.78;;;10.21;100.00
19108;BME280;9686;48.832;9.126;2022-11-21T06:40:14;97256.88;;;10.18;100.00
19108;BME280;9686;48.832;9.126;2022-11-21T06:42:39;97252.38;;;10.28;100.00
19108;BME280;9686;48.832;9.126;2022-11-21T06:45:05;97256.75;;;10.26;100.00
19108;BME280;9686;48.832;9.126;2022-11-21T06:47:34;97255.88;;;10.27;100.00
19108;BME280;9686;48.832;9.126;2022-11-21T06:49:59;97251.31;;;10.37;100.00
19108;BME280;9686;48.832;9.126;2022-11-21T06:52:25;97258.22;;;10.38;100.00
19108;BME280;9686;48.832;9.126;2022-11-21T06:54:50;97266.97;;;10.35;100.00
19108;BME280;9686;48.832;9.126;2022-11-21T06:57:16;97271.19;;;10.42;100.00
19108;BME280;9686;48.832;9.126;2022-11-21T06:59:41;97265.00;;;10.48;100.00
19108;BME280;9686;48.832;9.126;2022-11-21T07:02:11;97269.59;;;10.34;100.00
19108;BME280;9686;48.832;9.126;2022-11-21T07:04:36;97258.16;;;10.42;100.00
19108;BME280;9686;48.832;9.126;2022-11-21T07:07:02;97262.63;;;10.36;100.00
19108;BME280;9686;48.832;9.126;2022-11-21T07:09:27;97262.13;;;10.17;100.00
19108;BME280;9686;48.832;9.126;2022-11-21T07:11:53;97269.63;;;10.32;100.00
19108;BME280;9686;48.832;9.126;2022-11-21T07:14:19;97266.44;;;10.18;100.00
19108;BME280;9686;48.832;9.126;2022-11-21T07:16:44;97260.38;;;10.17;100.00
19108;BME280;9686;48.832;9.126;2022-11-21T07:19:10;97259.22;;;10.32;100.00
19108;BME280;9686;48.832;9.126;2022-11-21T07:21:35;97256.06;;;10.16;100.00
19108;BME280;9686;48.832;9.126;2022-11-21T07:24:01;97262.06;;;10.20;100.00
19108;BME280;9686;48.832;9.126;2022-11-21T07:26:26;97260.31;;;10.22;100.00
19108;BME280;9686;48.832;9.126;2022-11-21T07:28:52;97255.31;;;10.08;100.00
19108;BME280;9686;48.832;9.126;2022-11-21T07:31:17;97258.59;;;10.19;100.00
19108;BME280;9686;48.832;9.126;2022-11-21T07:33:42;97253.34;;;10.23;100.00
19108;BME280;9686;48.832;9.126;2022-11-21T07:36:08;97253.00;;;9.95;100.00
19108;BME280;9686;48.832;9.126;2022-11-21T07:38:33;97241.38;;;10.11;100.00
19108;BME280;9686;48.832;9.126;2022-11-21T07:40:59;97255.88;;;9.79;100.00
19108;BME280;9686;48.832;9.126;2022-11-21T07:43:24;97241.00;;;9.86;100.00
19108;BME280;9686;48.832;9.126;2022-11-21T07:45:49;97245.38;;;9.84;100.00
19108;BME280;9686;48.832;9.126;2022-11-21T07:48:15;97249.63;;;9.89;100.00
19108;BME280;9686;48.832;9.126;2022-11-21T07:50:40;97248.22;;;9.72;100.00
19108;BME280;9686;48.832;9.126;2022-11-21T07:53:07;97251.53;;;9.80;100.00
19108;BME280;9686;48.832;9.126;2022-11-21T07:55:33;97249.56;;;9.93;100.00
19108;BME280;9686;48.832;9.126;2022-11-21T07:58:04;97258.81;;;10.07;100.00
19108;BME280;9686;48.832;9.126;2022-11-21T08:00:31;97259.59;;;10.12;100.00
19108;BME280;9686;48.832;9.126;2022-11-21T08:02:57;97261.09;;;10.26;100.00
19108;BME280;9686;48.832;9.126;2022-11-21T08:05:23;97262.75;;;10.30;100.00
19108;BME280;9686;48.832;9.126;2022-11-21T08:07:49;97262.63;;;10.36;100.00
19108;BME280;9686;48.832;9.126;2022-11-21T08:10:15;97258.84;;;10.50;100.00
19108;BME280;9686;48.832;9.126;2022-11-21T08:12:40;97270.41;;;10.37;100.00
19108;BME280;9686;48.832;9.126;2022-11-21T08:15:06;97258.56;;;10.63;100.00
19108;BME280;9686;48.832;9.126;2022-11-21T08:17:32;97261.16;;;10.64;100.00
19108;BME280;9686;48.832;9.126;2022-11-21T08:19:58;97255.81;;;10.70;100.00
19108;BME280;9686;48.832;9.126;2022-11-21T08:22:25;97251.47;;;10.71;100.00
19108;BME280;9686;48.832;9.126;2022-11-21T08:24:50;97247.19;;;10.68;100.00
19108;BME280;9686;48.832;9.126;2022-11-21T08:27:17;97239.47;;;10.62;100.00
19108;BME280;9686;48.832;9.126;2022-11-21T08:29:45;97243.38;;;10.83;100.00
19108;BME280;9686;48.832;9.126;2022-11-21T08:32:11;97240.78;;;10.81;100.00
19108;BME280;9686;48.832;9.126;2022-11-21T08:34:36;97245.19;;;10.79;100.00
19108;BME280;9686;48.832;9.126;2022-11-21T08:37:02;97243.28;;;10.86;100.00
19108;BME280;9686;48.832;9.126;2022-11-21T08:39:27;97244.47;;;10.73;100.00
19108;BME280;9686;48.832;9.126;2022-11-21T08:41:55;97237.69;;;11.03;100.00
19108;BME280;9686;48.832;9.126;2022-11-21T08:44:31;97233.97;;;11.13;100.00
19108;BME280;9686;48.832;9.126;2022-11-21T08:46:57;97229.88;;;11.03;100.00
19108;BME280;9686;48.832;9.126;2022-11-21T08:49:22;97237.81;;;10.98;100.00
19108;BME280;9686;48.832;9.126;2022-11-21T08:51:48;97237.69;;;11.03;100.00
19108;BME280;9686;48.832;9.126;2022-11-21T08:54:17;97229.50;;;11.18;100.00
19108;BME280;9686;48.832;9.126;2022-11-21T08:56:43;97228.50;;;11.24;100.00
19108;BME280;9686;48.832;9.126;2022-11-21T08:59:09;97231.78;;;11.32;100.00
19108;BME280;9686;48.832;9.126;2022-11-21T09:01:34;97226.28;;;11.07;100.00
19108;BME280;9686;48.832;9.126;2022-11-21T09:04:00;97223.53;;;11.13;100.00
19108;BME280;9686;48.832;9.126;2022-11-21T09:06:25;97228.16;;;11.37;100.00
19108;BME280;9686;48.832;9.126;2022-11-21T09:08:50;97220.81;;;11.53;100.00
19108;BME280;9686;48.832;9.126;2022-11-21T09:11:17;97221.66;;;11.54;100.00
19108;BME280;9686;48.832;9.126;2022-11-21T09:13:42;97211.66;;;11.71;100.00
19108;BME280;9686;48.832;9.126;2022-11-21T09:16:10;97201.16;;;11.72;100.00
19108;BME280;9686;48.832;9.126;2022-11-21T09:18:54;97212.31;;;11.78;100.00
19108;BME280;9686;48.832;9.126;2022-11-21T09:21:20;97209.72;;;11.78;100.00
19108;BME280;9686;48.832;9.126;2022-11-21T09:23:46;97203.34;;;11.55;100.00
19108;BME280;9686;48.832;9.126;2022-11-21T09:26:12;97206.66;;;11.62;100.00
19108;BME280;9686;48.832;9.126;2022-11-21T09:28:39;97202.16;;;11.67;100.00
19108;BME280;9686;48.832;9.126;2022-11-21T09:31:05;97209.72;;;11.78;100.00
19108;BME280;9686;48.832;9.126;2022-11-21T09:33:31;97204.19;;;11.90;100.00
19108;BME280;9686;48.832;9.126;2022-11-21T09:35:57;97206.41;;;12.03;100.00
19108;BME280;9686;48.832;9.126;2022-11-21T09:38:24;97203.69;;;11.76;100.00
19108;BME280;9686;48.832;9.126;2022-11-21T09:40:51;97211.69;;;12.02;100.00
19108;BME280;9686;48.832;9.126;2022-11-21T09:43:45;97213.53;;;11.98;100.00
19108;BME280;9686;48.832;9.126;2022-11-21T09:46:18;97216.91;;;11.68;100.00
19108;BME280;9686;48.832;9.126;2022-11-21T09:51:13;97212.81;;;12.24;100.00
19108;BME280;9686;48.832;9.126;2022-11-21T09:53:50;97205.16;;;12.46;100.00
19108;BME280;9686;48.832;9.126;2022-11-21T09:56:17;97203.06;;;12.59;100.00
19108;BME280;9686;48.832;9.126;2022-11-21T09:58:50;97192.41;;;12.93;100.00
19108;BME280;9686;48.832;9.126;2022-11-21T10:01:20;97191.22;;;13.03;95.19
19108;BME280;9686;48.832;9.126;2022-11-21T10:03:49;97178.41;;;13.22;95.22
19108;BME280;9686;48.832;9.126;2022-11-21T10:06:19;97169.81;;;13.18;89.81
19108;BME280;9686;48.832;9.126;2022-11-21T10:08:57;97160.25;;;13.17;91.75
19108;BME280;9686;48.832;9.126;2022-11-21T10:12:03;97164.31;;;12.98;86.23
19108;BME280;9686;48.832;9.126;2022-11-21T10:15:00;97159.41;;;13.42;91.62
19108;BME280;9686;48.832;9.126;2022-11-21T10:25:38;97128.44;;;13.78;87.48
19108;BME280;9686;48.832;9.126;2022-11-21T10:28:19;97122.53;;;13.73;85.24
19108;BME280;9686;48.832;9.126;2022-11-21T10:30:49;97112.31;;;13.90;86.89
19108;BME280;9686;48.832;9.126;2022-11-21T10:33:32;97106.03;;;13.71;84.57
19108;BME280;9686;48.832;9.126;2022-11-21T10:36:13;97110.03;;;13.81;84.34
19108;BME280;9686;48.832;9.126;2022-11-21T10:38:40;97110.41;;;13.94;85.40
19108;BME280;9686;48.832;9.126;2022-11-21T10:44:21;97097.41;;;14.37;80.36
19108;BME280;9686;48.832;9.126;2022-11-21T10:47:22;97086.25;;;14.54;82.75
19108;BME280;9686;48.832;9.126;2022-11-21T10:52:42;97092.13;;;13.69;74.47
19108;BME280;9686;48.832;9.126;2022-11-21T10:55:12;97081.38;;;13.28;73.29
19108;BME280;9686;48.832;9.126;2022-11-21T10:57:42;97081.00;;;13.39;81.74
19108;BME280;9686;48.832;9.126;2022-11-21T11:05:40;97071.22;;;13.19;82.02
19108;BME280;9686;48.832;9.126;2022-11-21T11:08:17;97058.13;;;13.19;74.97
19108;BME280;9686;48.832;9.126;2022-11-21T11:11:00;97059.41;;;13.07;80.33
19108;BME280;9686;48.832;9.126;2022-11-21T11:13:25;97037.78;;;13.27;82.14
19108;BME280;9686;48.832;9.126;2022-11-21T11:21:42;97032.75;;;13.69;80.18
19108;BME280;9686;48.832;9.126;2022-11-21T11:26:34;97025.13;;;14.30;71.57
19108;BME280;9686;48.832;9.126;2022-11-21T11:34:20;97009.97;;;14.38;65.75
19108;BME280;9686;48.832;9.126;2022-11-21T11:36:53;96998.72;;;14.99;64.89
19108;BME280;9686;48.832;9.126;2022-11-21T11:42:07;96989.69;;;16.20;54.59
19108;BME280;9686;48.832;9.126;2022-11-21T11:48:15;96986.16;;;15.05;52.08
19108;BME280;9686;48.832;9.126;2022-11-21T11:53:21;96977.47;;;15.44;51.33
19108;BME280;9686;48.832;9.126;2022-11-21T11:56:12;96957.91;;;14.71;54.42
19108;BME280;9686;48.832;9.126;2022-11-21T12:16:58;96942.00;;;13.68;62.44
19108;BME280;9686;48.832;9.126;2022-11-21T12:19:24;96943.22;;;13.60;63.31
19108;BME280;9686;48.832;9.126;2022-11-21T12:24:25;96940.44;;;13.64;62.50
19108;BME280;9686;48.832;9.126;2022-11-21T12:29:24;96922.00;;;13.44;60.35
19108;BME280;9686;48.832;9.126;2022-11-21T12:34:38;96922.38;;;13.35;62.53
19108;BME280;9686;48.832;9.126;2022-11-21T12:42:24;96896.81;;;13.41;62.26
19108;BME280;9686;48.832;9.126;2022-11-21T13:05:41;96839.41;;;13.58;67.19
19108;BME280;9686;48.832;9.126;2022-11-21T13:08:12;96844.31;;;13.44;64.27
19108;BME280;9686;48.832;9.126;2022-11-21T13:10:43;96832.59;;;13.54;64.55
19108;BME280;9686;48.832;9.126;2022-11-21T13:13:32;96832.09;;;13.67;63.96
19108;BME280;9686;48.832;9.126;2022-11-21T13:16:06;96833.63;;;13.29;59.49
19108;BME280;9686;48.832;9.126;2022-11-21T13:18:41;96834.84;;;13.42;62.04
19108;BME280;9686;48.832;9.126;2022-11-21T13:21:43;96824.78;;;13.53;61.89
19108;BME280;9686;48.832;9.126;2022-11-21T13:24:09;96819.84;;;13.67;62.06
19108;BME280;9686;48.832;9.126;2022-11-21T13:26:46;96817.28;;;13.66;57.59
19108;BME280;9686;48.832;9.126;2022-11-21T13:29:15;96818.47;;;13.79;64.94
19108;BME280;9686;48.832;9.126;2022-11-21T13:31:41;96814.38;;;13.94;59.69
19108;BME280;9686;48.832;9.126;2022-11-21T13:36:55;96793.75;;;13.86;59.48
19108;BME280;9686;48.832;9.126;2022-11-21T13:39:28;96792.41;;;13.55;63.38
19108;BME280;9686;48.832;9.126;2022-11-21T13:41:59;96785.91;;;13.86;65.14
19108;BME280;9686;48.832;9.126;2022-11-21T13:44:43;96793.78;;;13.64;59.46
19108;BME280;9686;48.832;9.126;2022-11-21T13:57:50;96767.69;;;13.19;63.11
19108;BME280;9686;48.832;9.126;2022-11-21T14:00:23;96763.53;;;13.13;60.85
19108;BME280;9686;48.832;9.126;2022-11-21T14:08:30;96754.44;;;13.00;65.15
19108;BME280;9686;48.832;9.126;2022-11-21T14:10:56;96745.16;;;12.93;64.27
19108;BME280;9686;48.832;9.126;2022-11-21T14:13:29;96733.28;;;12.84;63.36
19108;BME280;9686;48.832;9.126;2022-11-21T14:18:49;96744.06;;;12.77;66.71
19108;BME280;9686;48.832;9.126;2022-11-21T14:21:33;96739.66;;;12.77;66.75
19108;BME280;9686;48.832;9.126;2022-11-21T14:24:03;96738.41;;;12.87;66.31
19108;BME280;9686;48.832;9.126;2022-11-21T14:26:44;96724.97;;;12.73;62.59
19108;BME280;9686;48.832;9.126;2022-11-21T14:31:51;96730.56;;;12.64;68.69
19108;BME280;9686;48.832;9.126;2022-11-21T14:34:30;96726.31;;;12.61;66.39
19108;BME280;9686;48.832;9.126;2022-11-21T14:36:59;96729.91;;;12.59;69.28
19108;BME280;9686;48.832;9.126;2022-11-21T14:39:27;96715.88;;;12.61;70.45
19108;BME280;9686;48.832;9.126;2022-11-21T14:41:54;96720.59;;;12.52;66.05
19108;BME280;9686;48.832;9.126;2022-11-21T14:44:22;96725.03;;;12.50;69.73
19108;BME280;9686;48.832;9.126;2022-11-21T14:46:48;96718.31;;;12.43;70.03
19108;BME280;9686;48.832;9.126;2022-11-21T14:49:18;96696.78;;;12.36;74.53
19108;BME280;9686;48.832;9.126;2022-11-21T14:51:46;96696.63;;;12.17;72.23
19108;BME280;9686;48.832;9.126;2022-11-21T14:54:15;96690.47;;;12.18;76.69
19108;BME280;9686;48.832;9.126;2022-11-21T14:56:42;96688.72;;;12.19;76.69
19108;BME280;9686;48.832;9.126;2022-11-21T15:01:57;96679.88;;;11.99;83.75
19108;BME280;9686;48.832;9.126;2022-11-21T15:04:31;96666.34;;;11.88;100.00
19108;BME280;9686;48.832;9.126;2022-11-21T15:06:57;96662.19;;;11.83;100.00
19108;BME280;9686;48.832;9.126;2022-11-21T15:09:22;96653.66;;;11.78;100.00
19108;BME280;9686;48.832;9.126;2022-11-21T15:11:56;96633.53;;;11.81;100.00
19108;BME280;9686;48.832;9.126;2022-11-21T15:14:42;96622.91;;;11.61;100.00
19108;BME280;9686;48.832;9.126;2022-11-21T15:17:15;96613.09;;;11.67;100.00
19108;BME280;9686;48.832;9.126;2022-11-21T15:19:44;96604.03;;;11.54;100.00
19108;BME280;9686;48.832;9.126;2022-11-21T15:22:23;96603.59;;;11.41;100.00
19108;BME280;9686;48.832;9.126;2022-11-21T15:25:05;96592.25;;;11.18;100.00